createdAt,value
2023-02-19T00:00:02.631Z,993.75
2023-02-19T00:01:02.629Z,993.65
2023-02-19T00:02:02.626Z,993.70
2023-02-19T00:03:52.194Z,993.71
2023-02-19T00:04:52.203Z,993.66
2023-02-19T00:05:52.204Z,993.78
2023-02-19T00:06:52.181Z,993.67
2023-02-19T00:07:52.140Z,993.60
2023-02-19T00:08:52.142Z,993.74
2023-02-19T00:09:52.123Z,993.65
2023-02-19T00:10:52.109Z,993.65
2023-02-19T00:11:52.132Z,993.55
2023-02-19T00:12:52.087Z,993.61
2023-02-19T00:13:52.088Z,993.66
2023-02-19T00:14:52.062Z,993.62
2023-02-19T00:15:52.074Z,993.61
2023-02-19T00:16:52.057Z,993.41
2023-02-19T00:17:52.027Z,993.36
2023-02-19T00:18:52.022Z,993.46
2023-02-19T00:19:52.005Z,993.32
2023-02-19T00:20:52.023Z,993.31
2023-02-19T00:21:52.000Z,993.29
2023-02-19T00:22:51.979Z,993.35
2023-02-19T00:23:51.962Z,993.26
2023-02-19T00:24:51.956Z,993.25
2023-02-19T00:25:51.940Z,993.21
2023-02-19T00:26:51.952Z,993.21
2023-02-19T00:27:51.919Z,993.26
2023-02-19T00:28:51.914Z,993.19
2023-02-19T00:29:51.895Z,993.27
2023-02-19T00:30:51.914Z,993.11
2023-02-19T00:31:52.073Z,993.13
2023-02-19T00:32:51.868Z,993.17
2023-02-19T00:33:51.859Z,993.10
2023-02-19T00:34:51.846Z,993.16
2023-02-19T00:35:51.836Z,993.14
2023-02-19T00:36:51.841Z,993.08
2023-02-19T00:37:51.809Z,993.07
2023-02-19T00:38:51.805Z,993.10
2023-02-19T00:39:51.792Z,993.08
2023-02-19T00:40:51.813Z,993.27
2023-02-19T00:41:51.785Z,993.20
2023-02-19T00:42:51.761Z,993.31
2023-02-19T00:43:51.752Z,993.42
2023-02-19T00:44:51.735Z,993.35
2023-02-19T00:45:51.722Z,993.35
2023-02-19T00:46:51.741Z,993.39
2023-02-19T00:47:51.703Z,993.26
2023-02-19T00:48:51.697Z,993.20
2023-02-19T00:49:51.681Z,993.11
2023-02-19T00:50:51.679Z,993.10
2023-02-19T00:51:51.695Z,993.08
2023-02-19T00:52:51.656Z,992.98
2023-02-19T00:53:51.642Z,993.09
2023-02-19T00:54:51.632Z,992.95
2023-02-19T00:55:51.623Z,992.89
2023-02-19T00:56:51.646Z,992.90
2023-02-19T00:57:51.601Z,992.92
2023-02-19T00:58:51.605Z,992.97
2023-02-19T00:59:51.573Z,993.04
2023-02-19T01:00:51.568Z,993.07
2023-02-19T01:01:51.643Z,992.99
2023-02-19T01:02:51.565Z,992.98
2023-02-19T01:03:51.530Z,992.92
2023-02-19T01:04:51.551Z,992.98
2023-02-19T01:05:51.507Z,992.97
2023-02-19T01:06:51.500Z,992.91
2023-02-19T01:07:51.494Z,992.99
2023-02-19T01:08:51.484Z,992.98
2023-02-19T01:09:51.462Z,992.89
2023-02-19T01:10:51.457Z,992.88
2023-02-19T01:11:51.470Z,992.99
2023-02-19T01:12:51.450Z,992.95
2023-02-19T01:13:51.455Z,992.93
2023-02-19T01:14:51.445Z,992.86
2023-02-19T01:15:51.418Z,992.85
2023-02-19T01:16:51.397Z,992.90
2023-02-19T01:17:51.389Z,992.87
2023-02-19T01:18:51.367Z,992.82
2023-02-19T01:19:51.396Z,992.95
2023-02-19T01:20:51.343Z,992.86
2023-02-19T01:21:51.333Z,992.81
2023-02-19T01:22:51.373Z,992.91
2023-02-19T01:23:51.308Z,992.80
2023-02-19T01:24:51.307Z,992.84
2023-02-19T01:25:51.288Z,992.90
2023-02-19T01:26:51.291Z,992.75
2023-02-19T01:27:51.281Z,992.80
2023-02-19T01:28:51.260Z,992.81
2023-02-19T01:29:51.248Z,992.75
2023-02-19T01:30:51.238Z,992.84
2023-02-19T01:31:51.270Z,992.75
2023-02-19T01:32:51.224Z,992.68
2023-02-19T01:33:51.206Z,992.56
2023-02-19T01:34:51.187Z,992.62
2023-02-19T01:35:51.176Z,992.75
2023-02-19T01:36:51.193Z,992.71
2023-02-19T01:37:51.169Z,992.71
2023-02-19T01:38:51.150Z,992.82
2023-02-19T01:39:51.135Z,992.81
2023-02-19T01:40:51.127Z,992.81
2023-02-19T01:41:51.120Z,992.84
2023-02-19T01:42:51.122Z,992.80
2023-02-19T01:43:51.087Z,992.70
2023-02-19T01:44:51.096Z,992.73
2023-02-19T01:45:51.093Z,992.78
2023-02-19T01:46:51.131Z,992.77
2023-02-19T01:47:51.106Z,992.86
2023-02-19T01:48:51.060Z,992.72
2023-02-19T01:49:51.059Z,992.77
2023-02-19T01:50:51.062Z,992.67
2023-02-19T01:51:51.103Z,992.64
2023-02-19T01:52:51.040Z,992.65
2023-02-19T01:53:50.984Z,992.65
2023-02-19T01:54:51.010Z,992.70
2023-02-19T01:55:50.964Z,992.62
2023-02-19T01:56:50.965Z,992.63
2023-02-19T01:57:50.948Z,992.53
2023-02-19T01:58:50.926Z,992.48
2023-02-19T01:59:50.914Z,992.50
2023-02-19T02:00:50.937Z,992.42
2023-02-19T02:01:50.899Z,992.49
2023-02-19T02:02:50.900Z,992.41
2023-02-19T02:03:50.875Z,992.45
2023-02-19T02:04:50.870Z,992.42
2023-02-19T02:05:50.853Z,992.44
2023-02-19T02:06:50.840Z,992.36
2023-02-19T02:07:50.838Z,992.43
2023-02-19T02:08:50.824Z,992.41
2023-02-19T02:09:50.805Z,992.38
2023-02-19T02:10:50.802Z,992.47
2023-02-19T02:11:50.788Z,992.35
2023-02-19T02:12:50.787Z,992.38
2023-02-19T02:13:50.762Z,992.33
2023-02-19T02:14:50.762Z,992.35
2023-02-19T02:15:50.742Z,992.31
2023-02-19T02:16:50.737Z,992.33
2023-02-19T02:17:50.730Z,992.30
2023-02-19T02:18:50.710Z,992.25
2023-02-19T02:19:50.702Z,992.26
2023-02-19T02:20:50.701Z,992.22
2023-02-19T02:21:50.682Z,992.19
2023-02-19T02:22:50.684Z,992.23
2023-02-19T02:23:50.659Z,992.14
2023-02-19T02:24:50.650Z,992.13
2023-02-19T02:25:50.638Z,992.20
2023-02-19T02:26:50.624Z,992.17
2023-02-19T02:27:50.630Z,992.15
2023-02-19T02:28:50.604Z,992.19
2023-02-19T02:29:50.590Z,992.21
2023-02-19T02:30:50.589Z,992.15
2023-02-19T02:31:50.646Z,992.15
2023-02-19T02:32:50.577Z,992.24
2023-02-19T02:33:50.548Z,992.25
2023-02-19T02:34:50.541Z,992.13
2023-02-19T02:35:50.538Z,992.04
2023-02-19T02:36:50.538Z,992.09
2023-02-19T02:37:50.515Z,992.07
2023-02-19T02:38:50.498Z,992.08
2023-02-19T02:39:50.483Z,991.89
2023-02-19T02:40:50.480Z,991.95
2023-02-19T02:41:50.461Z,991.97
2023-02-19T02:42:50.474Z,991.91
2023-02-19T02:43:50.445Z,991.91
2023-02-19T02:44:50.433Z,991.94
2023-02-19T02:45:50.490Z,991.96
2023-02-19T02:46:50.414Z,991.96
2023-02-19T02:47:50.410Z,991.94
2023-02-19T02:48:50.389Z,991.95
2023-02-19T02:49:50.374Z,991.97
2023-02-19T02:50:50.368Z,991.96
2023-02-19T02:51:50.356Z,991.89
2023-02-19T02:52:50.364Z,992.00
2023-02-19T02:53:50.330Z,992.00
2023-02-19T02:54:50.325Z,991.91
2023-02-19T02:55:50.307Z,991.88
2023-02-19T02:56:50.302Z,991.89
2023-02-19T02:57:50.295Z,991.97
2023-02-19T02:58:50.299Z,991.91
2023-02-19T02:59:50.269Z,991.94
2023-02-19T03:00:50.274Z,991.85
2023-02-19T03:01:50.281Z,991.97
2023-02-19T03:02:50.266Z,991.88
2023-02-19T03:03:50.235Z,991.95
2023-02-19T03:04:50.212Z,992.03
2023-02-19T03:05:50.200Z,992.03
2023-02-19T03:06:50.191Z,992.02
2023-02-19T03:07:50.194Z,991.93
2023-02-19T03:08:50.188Z,991.98
2023-02-19T03:09:50.154Z,991.78
2023-02-19T03:10:50.181Z,991.84
2023-02-19T03:11:50.134Z,991.87
2023-02-19T03:12:50.125Z,991.88
2023-02-19T03:13:50.150Z,991.77
2023-02-19T03:14:50.101Z,991.80
2023-02-19T03:15:50.089Z,991.77
2023-02-19T03:16:50.232Z,991.92
2023-02-19T03:17:50.076Z,991.94
2023-02-19T03:18:50.112Z,991.86
2023-02-19T03:19:50.077Z,991.92
2023-02-19T03:20:50.036Z,991.98
2023-02-19T03:21:50.035Z,991.90
2023-02-19T03:22:50.033Z,991.90
2023-02-19T03:23:50.015Z,991.82
2023-02-19T03:24:50.000Z,991.76
2023-02-19T03:25:50.005Z,991.92
2023-02-19T03:26:50.040Z,991.84
2023-02-19T03:27:49.967Z,991.83
2023-02-19T03:28:49.966Z,991.82
2023-02-19T03:29:49.951Z,991.91
2023-02-19T03:30:49.927Z,991.86
2023-02-19T03:31:49.972Z,991.91
2023-02-19T03:32:49.905Z,991.81
2023-02-19T03:33:49.907Z,991.79
2023-02-19T03:34:49.896Z,991.92
2023-02-19T03:35:49.885Z,991.85
2023-02-19T03:36:49.863Z,991.80
2023-02-19T03:37:49.852Z,991.81
2023-02-19T03:38:49.853Z,991.82
2023-02-19T03:39:49.835Z,991.86
2023-02-19T03:40:49.821Z,991.91
2023-02-19T03:41:49.811Z,991.88
2023-02-19T03:42:49.796Z,991.84
2023-02-19T03:43:49.802Z,991.77
2023-02-19T03:44:49.785Z,991.89
2023-02-19T03:45:49.795Z,991.83
2023-02-19T03:46:49.757Z,991.85
2023-02-19T03:47:49.776Z,991.82
2023-02-19T03:48:49.745Z,991.83
2023-02-19T03:49:49.721Z,991.82
2023-02-19T03:50:49.714Z,991.82
2023-02-19T03:51:49.703Z,991.78
2023-02-19T03:52:49.697Z,991.76
2023-02-19T03:53:49.709Z,991.74
2023-02-19T03:54:49.674Z,991.74
2023-02-19T03:55:49.653Z,991.74
2023-02-19T03:56:49.645Z,991.73
2023-02-19T03:57:49.633Z,991.77
2023-02-19T03:58:49.656Z,991.73
2023-02-19T03:59:49.618Z,991.73
2023-02-19T04:00:49.599Z,991.97
2023-02-19T04:01:49.592Z,991.83
2023-02-19T04:02:49.582Z,991.87
2023-02-19T04:03:49.590Z,991.83
2023-02-19T04:04:49.592Z,991.78
2023-02-19T04:05:49.543Z,991.87
2023-02-19T04:06:49.538Z,991.82
2023-02-19T04:07:49.527Z,991.89
2023-02-19T04:08:49.528Z,991.93
2023-02-19T04:09:49.504Z,991.93
2023-02-19T04:10:49.509Z,991.88
2023-02-19T04:11:49.477Z,991.85
2023-02-19T04:12:49.481Z,991.86
2023-02-19T04:13:49.479Z,991.90
2023-02-19T04:14:49.455Z,991.91
2023-02-19T04:15:49.436Z,991.93
2023-02-19T04:16:49.491Z,991.98
2023-02-19T04:17:49.414Z,991.98
2023-02-19T04:18:49.445Z,991.86
2023-02-19T04:19:49.394Z,991.84
2023-02-19T04:20:49.393Z,991.90
2023-02-19T04:21:49.372Z,991.74
2023-02-19T04:22:49.376Z,991.75
2023-02-19T04:23:49.355Z,991.82
2023-02-19T04:24:49.359Z,991.85
2023-02-19T04:25:49.333Z,991.83
2023-02-19T04:26:49.319Z,991.84
2023-02-19T04:27:50.468Z,991.79
2023-02-19T04:28:50.461Z,991.86
2023-02-19T04:29:50.475Z,991.81
2023-02-19T04:30:50.451Z,991.87
2023-02-19T04:31:50.470Z,991.81
2023-02-19T04:32:50.414Z,991.82
2023-02-19T04:33:50.397Z,991.78
2023-02-19T04:34:51.213Z,991.89
2023-02-19T04:35:50.398Z,991.85
2023-02-19T04:36:50.412Z,991.81
2023-02-19T04:37:50.398Z,991.95
2023-02-19T04:38:50.371Z,991.90
2023-02-19T04:39:50.376Z,991.93
2023-02-19T04:40:50.373Z,991.92
2023-02-19T04:41:50.346Z,991.86
2023-02-19T04:42:50.361Z,991.90
2023-02-19T04:43:50.367Z,991.75
2023-02-19T04:44:50.316Z,991.93
2023-02-19T04:45:50.322Z,991.97
2023-02-19T04:46:50.289Z,991.97
2023-02-19T04:47:50.253Z,991.99
2023-02-19T04:48:50.282Z,992.02
2023-02-19T04:49:50.276Z,992.00
2023-02-19T04:50:50.254Z,991.98
2023-02-19T04:51:50.238Z,991.96
2023-02-19T04:52:50.237Z,992.06
2023-02-19T04:53:50.207Z,992.15
2023-02-19T04:54:50.216Z,992.00
2023-02-19T04:55:50.174Z,992.05
2023-02-19T04:56:50.203Z,992.12
2023-02-19T04:57:50.177Z,992.16
2023-02-19T04:58:50.180Z,992.09
2023-02-19T04:59:50.193Z,992.10
2023-02-19T05:00:50.138Z,992.19
2023-02-19T05:01:50.238Z,992.22
2023-02-19T05:02:50.110Z,992.14
2023-02-19T05:03:50.093Z,992.14
2023-02-19T05:04:50.099Z,992.25
2023-02-19T05:05:50.065Z,992.17
2023-02-19T05:06:50.067Z,992.18
2023-02-19T05:07:50.080Z,992.18
2023-02-19T05:08:50.062Z,992.19
2023-02-19T05:09:50.065Z,992.31
2023-02-19T05:10:50.035Z,992.24
2023-02-19T05:11:50.042Z,992.23
2023-02-19T05:12:50.048Z,992.25
2023-02-19T05:13:50.009Z,992.34
2023-02-19T05:14:50.029Z,992.30
2023-02-19T05:15:50.015Z,992.44
2023-02-19T05:16:49.982Z,992.32
2023-02-19T05:17:49.963Z,992.37
2023-02-19T05:18:49.947Z,992.39
2023-02-19T05:19:49.953Z,992.37
2023-02-19T05:20:49.924Z,992.44
2023-02-19T05:21:49.929Z,992.38
2023-02-19T05:22:49.908Z,992.39
2023-02-19T05:23:49.954Z,992.39
2023-02-19T05:24:49.919Z,992.44
2023-02-19T05:25:49.903Z,992.48
2023-02-19T05:26:49.900Z,992.44
2023-02-19T05:27:49.916Z,992.44
2023-02-19T05:28:49.876Z,992.44
2023-02-19T05:29:49.856Z,992.51
2023-02-19T05:30:49.944Z,992.47
2023-02-19T05:31:49.963Z,992.42
2023-02-19T05:32:49.821Z,992.49
2023-02-19T05:33:49.880Z,992.60
2023-02-19T05:34:49.810Z,992.62
2023-02-19T05:35:49.821Z,992.51
2023-02-19T05:36:49.774Z,992.55
2023-02-19T05:37:49.764Z,992.55
2023-02-19T05:38:49.741Z,992.57
2023-02-19T05:39:49.766Z,992.57
2023-02-19T05:40:49.761Z,992.59
2023-02-19T05:41:49.757Z,992.54
2023-02-19T05:42:49.713Z,992.55
2023-02-19T05:43:49.701Z,992.65
2023-02-19T05:44:49.717Z,992.57
2023-02-19T05:45:49.726Z,992.65
2023-02-19T05:46:49.660Z,992.65
2023-02-19T05:47:49.666Z,992.74
2023-02-19T05:48:49.644Z,992.70
2023-02-19T05:49:49.652Z,992.76
2023-02-19T05:50:49.636Z,992.64
2023-02-19T05:51:49.676Z,992.66
2023-02-19T05:52:49.621Z,992.67
2023-02-19T05:53:49.611Z,992.67
2023-02-19T05:54:49.626Z,992.66
2023-02-19T05:55:49.614Z,992.76
2023-02-19T05:56:49.569Z,992.75
2023-02-19T05:57:49.604Z,992.72
2023-02-19T05:58:49.568Z,992.86
2023-02-19T05:59:49.574Z,992.82
2023-02-19T06:00:49.559Z,992.87
2023-02-19T06:01:49.555Z,992.86
2023-02-19T06:02:49.628Z,992.83
2023-02-19T06:03:49.564Z,992.90
2023-02-19T06:04:49.533Z,992.86
2023-02-19T06:05:49.526Z,992.84
2023-02-19T06:06:49.504Z,992.88
2023-02-19T06:07:49.481Z,992.91
2023-02-19T06:08:49.459Z,992.95
2023-02-19T06:09:49.479Z,992.96
2023-02-19T06:10:49.457Z,992.96
2023-02-19T06:11:49.449Z,992.98
2023-02-19T06:12:49.421Z,993.00
2023-02-19T06:13:49.398Z,993.03
2023-02-19T06:14:49.408Z,992.93
2023-02-19T06:15:49.429Z,992.96
2023-02-19T06:16:49.414Z,992.98
2023-02-19T06:17:49.379Z,992.98
2023-02-19T06:18:49.399Z,993.11
2023-02-19T06:19:49.350Z,993.05
2023-02-19T06:20:49.330Z,993.03
2023-02-19T06:21:49.352Z,993.06
2023-02-19T06:22:49.333Z,993.12
2023-02-19T06:23:49.330Z,993.16
2023-02-19T06:24:49.349Z,993.08
2023-02-19T06:25:50.317Z,993.09
2023-02-19T06:26:49.303Z,993.14
2023-02-19T06:27:49.284Z,993.24
2023-02-19T06:28:49.249Z,993.14
2023-02-19T06:29:49.251Z,993.17
2023-02-19T06:30:51.474Z,993.19
2023-02-19T06:31:50.312Z,993.19
2023-02-19T06:32:49.232Z,993.19
2023-02-19T06:33:49.207Z,993.25
2023-02-19T06:34:49.206Z,993.22
2023-02-19T06:35:49.211Z,993.25
2023-02-19T06:36:49.224Z,993.35
2023-02-19T06:37:49.205Z,993.21
2023-02-19T06:38:49.168Z,993.32
2023-02-19T06:39:49.164Z,993.36
2023-02-19T06:40:49.150Z,993.35
2023-02-19T06:41:49.135Z,993.41
2023-02-19T06:42:49.140Z,993.46
2023-02-19T06:43:49.131Z,993.45
2023-02-19T06:44:49.111Z,993.45
2023-02-19T06:45:49.092Z,993.49
2023-02-19T06:46:49.140Z,993.65
2023-02-19T06:47:49.075Z,993.63
2023-02-19T06:48:49.078Z,993.53
2023-02-19T06:49:49.123Z,993.64
2023-02-19T06:50:49.057Z,993.65
2023-02-19T06:51:49.045Z,993.65
2023-02-19T06:52:49.070Z,993.63
2023-02-19T06:53:49.037Z,993.66
2023-02-19T06:54:49.037Z,993.68
2023-02-19T06:55:48.991Z,993.66
2023-02-19T06:56:49.011Z,993.76
2023-02-19T06:57:48.974Z,993.71
2023-02-19T06:58:48.973Z,993.69
2023-02-19T06:59:48.971Z,993.83
2023-02-19T07:00:48.999Z,993.76
2023-02-19T07:01:48.978Z,993.74
2023-02-19T07:02:48.928Z,993.74
2023-02-19T07:03:48.946Z,993.78
2023-02-19T07:04:48.888Z,993.74
2023-02-19T07:05:48.889Z,993.88
2023-02-19T07:06:48.889Z,993.95
2023-02-19T07:07:48.888Z,993.89
2023-02-19T07:08:48.854Z,993.82
2023-02-19T07:09:48.828Z,993.90
2023-02-19T07:10:48.848Z,993.86
2023-02-19T07:11:48.836Z,993.95
2023-02-19T07:12:48.790Z,993.84
2023-02-19T07:13:49.799Z,993.81
2023-02-19T07:14:48.806Z,993.89
2023-02-19T07:15:50.521Z,993.98
2023-02-19T07:16:48.796Z,993.88
2023-02-19T07:17:48.786Z,993.95
2023-02-19T07:18:48.764Z,993.92
2023-02-19T07:19:48.735Z,993.98
2023-02-19T07:20:48.718Z,993.99
2023-02-19T07:21:48.756Z,993.99
2023-02-19T07:22:48.705Z,994.01
2023-02-19T07:23:48.695Z,993.98
2023-02-19T07:24:48.700Z,994.00
2023-02-19T07:25:48.685Z,993.98
2023-02-19T07:26:48.731Z,994.05
2023-02-19T07:27:48.673Z,994.05
2023-02-19T07:28:48.656Z,994.09
2023-02-19T07:29:48.647Z,994.09
2023-02-19T07:30:48.654Z,994.06
2023-02-19T07:31:48.660Z,994.11
2023-02-19T07:32:48.634Z,994.11
2023-02-19T07:33:48.620Z,994.16
2023-02-19T07:34:48.580Z,994.10
2023-02-19T07:35:48.599Z,994.20
2023-02-19T07:36:48.612Z,994.11
2023-02-19T07:37:48.576Z,994.24
2023-02-19T07:38:48.560Z,994.26
2023-02-19T07:39:48.537Z,994.33
2023-02-19T07:40:48.562Z,994.24
2023-02-19T07:41:48.529Z,994.24
2023-02-19T07:42:48.506Z,994.33
2023-02-19T07:43:48.495Z,994.36
2023-02-19T07:44:48.505Z,994.44
2023-02-19T07:45:48.491Z,994.42
2023-02-19T07:46:48.503Z,994.43
2023-02-19T07:47:48.474Z,994.42
2023-02-19T07:48:48.466Z,994.48
2023-02-19T07:49:48.443Z,994.46
2023-02-19T07:50:48.434Z,994.48
2023-02-19T07:51:48.474Z,994.50
2023-02-19T07:52:48.413Z,994.58
2023-02-19T07:53:48.408Z,994.55
2023-02-19T07:54:48.398Z,994.47
2023-02-19T07:55:48.430Z,994.54
2023-02-19T07:56:48.422Z,994.60
2023-02-19T07:57:48.375Z,994.53
2023-02-19T07:58:48.360Z,994.61
2023-02-19T07:59:48.321Z,994.61
2023-02-19T08:00:48.408Z,994.65
2023-02-19T08:01:48.353Z,994.64
2023-02-19T08:02:48.305Z,994.71
2023-02-19T08:03:50.538Z,994.63
2023-02-19T08:04:49.313Z,994.67
2023-02-19T08:05:48.335Z,994.67
2023-02-19T08:06:48.255Z,994.73
2023-02-19T08:07:48.258Z,994.75
2023-02-19T08:08:48.251Z,994.76
2023-02-19T08:09:48.251Z,994.79
2023-02-19T08:10:48.253Z,994.78
2023-02-19T08:11:48.228Z,994.90
2023-02-19T08:12:48.226Z,994.82
2023-02-19T08:13:48.202Z,994.92
2023-02-19T08:14:48.181Z,994.87
2023-02-19T08:15:48.182Z,994.96
2023-02-19T08:16:48.217Z,994.96
2023-02-19T08:17:48.166Z,994.92
2023-02-19T08:18:48.153Z,995.00
2023-02-19T08:19:48.125Z,994.98
2023-02-19T08:20:48.125Z,995.09
2023-02-19T08:21:48.110Z,995.04
2023-02-19T08:22:48.148Z,995.06
2023-02-19T08:23:50.655Z,995.09
2023-02-19T08:24:48.067Z,995.09
2023-02-19T08:25:48.138Z,995.10
2023-02-19T08:26:48.069Z,995.13
2023-02-19T08:27:48.072Z,995.15
2023-02-19T08:28:48.032Z,995.13
2023-02-19T08:29:49.041Z,995.21
2023-02-19T08:30:48.138Z,995.19
2023-02-19T08:31:48.149Z,995.27
2023-02-19T08:32:47.993Z,995.30
2023-02-19T08:33:48.014Z,995.28
2023-02-19T08:34:47.969Z,995.30
2023-02-19T08:35:47.987Z,995.41
2023-02-19T08:36:48.005Z,995.37
2023-02-19T08:37:47.962Z,995.44
2023-02-19T08:38:47.957Z,995.45
2023-02-19T08:39:47.955Z,995.43
2023-02-19T08:40:47.933Z,995.46
2023-02-19T08:41:47.952Z,995.44
2023-02-19T08:42:47.939Z,995.49
2023-02-19T08:43:47.890Z,995.49
2023-02-19T08:44:47.900Z,995.51
2023-02-19T08:45:47.928Z,995.62
2023-02-19T08:46:47.888Z,995.54
2023-02-19T08:47:47.842Z,995.56
2023-02-19T08:48:47.868Z,995.55
2023-02-19T08:49:47.840Z,995.57
2023-02-19T08:50:47.830Z,995.58
2023-02-19T08:51:47.814Z,995.62
2023-02-19T08:52:47.795Z,995.72
2023-02-19T08:53:47.836Z,995.57
2023-02-19T08:54:47.776Z,995.63
2023-02-19T08:55:47.744Z,995.62
2023-02-19T08:56:47.775Z,995.58
2023-02-19T08:57:49.771Z,995.69
2023-02-19T08:58:48.765Z,995.61
2023-02-19T08:59:47.723Z,995.67
2023-02-19T09:00:47.720Z,995.67
2023-02-19T09:01:47.749Z,995.67
2023-02-19T09:02:47.683Z,995.72
2023-02-19T09:03:47.763Z,995.70
2023-02-19T09:04:47.680Z,995.69
2023-02-19T09:05:47.713Z,995.77
2023-02-19T09:06:47.705Z,995.80
2023-02-19T09:07:47.635Z,995.82
2023-02-19T09:08:47.650Z,995.74
2023-02-19T09:09:47.641Z,995.83
2023-02-19T09:10:47.599Z,995.75
2023-02-19T09:11:49.296Z,995.77
2023-02-19T09:12:48.597Z,995.79
2023-02-19T09:13:47.594Z,995.85
2023-02-19T09:14:47.624Z,995.81
2023-02-19T09:15:47.605Z,995.81
2023-02-19T09:16:47.576Z,995.81
2023-02-19T09:17:47.548Z,995.90
2023-02-19T09:18:47.534Z,995.88
2023-02-19T09:19:50.607Z,995.94
2023-02-19T09:20:48.515Z,995.88
2023-02-19T09:21:47.500Z,995.88
2023-02-19T09:22:47.503Z,995.88
2023-02-19T09:23:47.502Z,995.93
2023-02-19T09:24:47.462Z,995.92
2023-02-19T09:25:47.481Z,995.92
2023-02-19T09:26:47.465Z,995.85
2023-02-19T09:27:47.473Z,995.86
2023-02-19T09:28:47.459Z,995.83
2023-02-19T09:29:47.430Z,995.85
2023-02-19T09:30:50.480Z,995.92
2023-02-19T09:31:47.573Z,995.97
2023-02-19T09:32:47.405Z,995.98
2023-02-19T09:33:47.438Z,995.96
2023-02-19T09:34:47.371Z,996.02
2023-02-19T09:35:47.392Z,995.97
2023-02-19T09:36:47.379Z,995.96
2023-02-19T09:37:47.353Z,995.88
2023-02-19T09:38:48.189Z,995.97
2023-02-19T09:39:47.331Z,995.96
2023-02-19T09:40:47.305Z,995.93
2023-02-19T09:41:47.318Z,995.93
2023-02-19T09:42:47.297Z,996.02
2023-02-19T09:43:47.287Z,996.02
2023-02-19T09:44:47.308Z,995.96
2023-02-19T09:45:47.276Z,995.99
2023-02-19T09:46:47.312Z,995.98
2023-02-19T09:47:48.047Z,995.96
2023-02-19T09:48:47.270Z,996.01
2023-02-19T09:49:47.236Z,996.10
2023-02-19T09:50:48.081Z,996.04
2023-02-19T09:51:47.212Z,996.10
2023-02-19T09:52:47.193Z,996.14
2023-02-19T09:53:47.217Z,996.16
2023-02-19T09:54:47.216Z,996.18
2023-02-19T09:55:47.183Z,996.19
2023-02-19T09:56:47.157Z,996.16
2023-02-19T09:57:47.152Z,996.19
2023-02-19T09:58:47.168Z,996.18
2023-02-19T09:59:47.111Z,996.25
2023-02-19T10:00:47.115Z,996.25
2023-02-19T10:01:47.149Z,996.27
2023-02-19T10:02:47.114Z,996.27
2023-02-19T10:03:47.137Z,996.25
2023-02-19T10:04:47.143Z,996.24
2023-02-19T10:05:47.066Z,996.25
2023-02-19T10:06:47.038Z,996.34
2023-02-19T10:07:47.096Z,996.22
2023-02-19T10:08:47.048Z,996.31
2023-02-19T10:09:47.054Z,996.27
2023-02-19T10:10:47.044Z,996.24
2023-02-19T10:11:47.010Z,996.33
2023-02-19T10:12:46.992Z,996.40
2023-02-19T10:13:46.993Z,996.46
2023-02-19T10:14:47.014Z,996.47
2023-02-19T10:15:47.018Z,996.54
2023-02-19T10:16:46.973Z,996.50
2023-02-19T10:17:46.954Z,996.53
2023-02-19T10:18:46.946Z,996.50
2023-02-19T10:19:46.971Z,996.53
2023-02-19T10:20:46.936Z,996.47
2023-02-19T10:21:46.921Z,996.53
2023-02-19T10:22:46.897Z,996.59
2023-02-19T10:23:46.927Z,996.65
2023-02-19T10:24:46.921Z,996.68
2023-02-19T10:25:46.869Z,996.68
2023-02-19T10:26:46.896Z,996.72
2023-02-19T10:27:46.879Z,996.66
2023-02-19T10:28:46.894Z,996.61
2023-02-19T10:29:46.869Z,996.62
2023-02-19T10:30:46.827Z,996.63
2023-02-19T10:31:46.994Z,996.72
2023-02-19T10:32:46.802Z,996.74
2023-02-19T10:33:46.799Z,996.73
2023-02-19T10:34:46.803Z,996.81
2023-02-19T10:35:46.778Z,996.77
2023-02-19T10:36:46.784Z,996.82
2023-02-19T10:37:46.769Z,996.83
2023-02-19T10:38:46.751Z,996.88
2023-02-19T10:39:46.760Z,996.85
2023-02-19T10:40:46.724Z,996.90
2023-02-19T10:41:46.702Z,996.91
2023-02-19T10:42:46.733Z,996.93
2023-02-19T10:43:46.712Z,996.93
2023-02-19T10:44:46.706Z,996.96
2023-02-19T10:45:46.676Z,996.96
2023-02-19T10:46:46.726Z,997.03
2023-02-19T10:47:46.680Z,996.96
2023-02-19T10:48:46.647Z,996.93
2023-02-19T10:49:46.649Z,997.03
2023-02-19T10:50:46.643Z,997.07
2023-02-19T10:51:46.615Z,996.98
2023-02-19T10:52:46.605Z,997.01
2023-02-19T10:53:46.624Z,997.03
2023-02-19T10:54:46.632Z,997.04
2023-02-19T10:55:46.590Z,997.05
2023-02-19T10:56:46.598Z,997.08
2023-02-19T10:57:46.561Z,997.14
2023-02-19T10:58:48.006Z,997.19
2023-02-19T10:59:46.629Z,997.13
2023-02-19T11:00:47.237Z,997.17
2023-02-19T11:01:46.599Z,997.14
2023-02-19T11:02:46.567Z,997.31
2023-02-19T11:03:47.084Z,997.25
2023-02-19T11:04:46.710Z,997.29
2023-02-19T11:05:46.638Z,997.27
2023-02-19T11:06:46.499Z,997.27
2023-02-19T11:07:46.500Z,997.27
2023-02-19T11:08:46.526Z,997.27
2023-02-19T11:09:46.578Z,997.31
2023-02-19T11:10:46.536Z,997.33
2023-02-19T11:11:46.523Z,997.25
2023-02-19T11:12:46.555Z,997.28
2023-02-19T11:13:46.486Z,997.24
2023-02-19T11:14:46.465Z,997.29
2023-02-19T11:15:46.487Z,997.32
2023-02-19T11:16:46.489Z,997.33
2023-02-19T11:17:46.469Z,997.40
2023-02-19T11:18:46.393Z,997.37
2023-02-19T11:19:46.429Z,997.39
2023-02-19T11:20:46.444Z,997.48
2023-02-19T11:21:46.422Z,997.44
2023-02-19T11:22:46.424Z,997.38
2023-02-19T11:23:46.390Z,997.45
2023-02-19T11:24:46.431Z,997.53
2023-02-19T11:25:46.366Z,997.52
2023-02-19T11:26:46.366Z,997.48
2023-02-19T11:27:46.392Z,997.38
2023-02-19T11:28:46.371Z,997.36
2023-02-19T11:29:46.330Z,997.34
2023-02-19T11:30:46.362Z,997.37
2023-02-19T11:31:46.428Z,997.41
2023-02-19T11:32:46.282Z,997.33
2023-02-19T11:33:46.349Z,997.38
2023-02-19T11:34:46.250Z,997.32
2023-02-19T11:35:46.318Z,997.34
2023-02-19T11:36:46.244Z,997.34
2023-02-19T11:37:46.304Z,997.33
2023-02-19T11:38:46.163Z,997.33
2023-02-19T11:39:46.157Z,997.26
2023-02-19T11:40:46.219Z,997.31
2023-02-19T11:41:46.173Z,997.25
2023-02-19T11:42:46.166Z,997.31
2023-02-19T11:43:46.108Z,997.35
2023-02-19T11:44:46.129Z,997.34
2023-02-19T11:45:46.101Z,997.39
2023-02-19T11:46:46.182Z,997.44
2023-02-19T11:47:46.062Z,997.37
2023-02-19T11:48:46.057Z,997.39
2023-02-19T11:49:46.060Z,997.33
2023-02-19T11:50:46.071Z,997.34
2023-02-19T11:51:49.503Z,997.33
2023-02-19T11:52:48.082Z,997.35
2023-02-19T11:53:48.089Z,997.37
2023-02-19T11:54:45.987Z,997.41
2023-02-19T11:55:46.021Z,997.38
2023-02-19T11:56:46.006Z,997.33
2023-02-19T11:57:45.987Z,997.41
2023-02-19T11:58:45.945Z,997.41
2023-02-19T11:59:45.971Z,997.46
2023-02-19T12:00:46.968Z,997.45
2023-02-19T12:01:45.938Z,997.45
2023-02-19T12:02:45.908Z,997.56
2023-02-19T12:03:45.959Z,997.59
2023-02-19T12:04:45.910Z,997.59
2023-02-19T12:05:45.878Z,997.52
2023-02-19T12:06:45.877Z,997.64
2023-02-19T12:07:45.866Z,997.63
2023-02-19T12:08:45.868Z,997.72
2023-02-19T12:09:45.837Z,997.76
2023-02-19T12:10:45.836Z,997.81
2023-02-19T12:11:46.665Z,997.89
2023-02-19T12:12:45.822Z,997.78
2023-02-19T12:13:45.836Z,997.82
2023-02-19T12:14:45.824Z,997.82
2023-02-19T12:15:45.838Z,997.78
2023-02-19T12:16:45.919Z,997.82
2023-02-19T12:17:45.760Z,997.76
2023-02-19T12:18:45.795Z,997.82
2023-02-19T12:19:45.771Z,997.82
2023-02-19T12:20:45.795Z,997.88
2023-02-19T12:21:45.723Z,997.88
2023-02-19T12:22:45.693Z,997.87
2023-02-19T12:23:45.705Z,997.83
2023-02-19T12:24:45.685Z,997.89
2023-02-19T12:25:45.684Z,997.89
2023-02-19T12:26:45.690Z,997.77
2023-02-19T12:27:45.650Z,997.74
2023-02-19T12:28:45.648Z,997.76